createdAt,value
2022-08-20T00:00:42.568Z,17.50
2022-08-20T00:03:39.953Z,17.60
2022-08-20T00:06:17.183Z,17.50
2022-08-20T00:08:44.581Z,17.50
2022-08-20T00:11:14.234Z,17.50
2022-08-20T00:13:47.978Z,17.50
2022-08-20T00:16:17.285Z,17.50
2022-08-20T00:18:44.685Z,17.50
2022-08-20T00:21:19.169Z,17.50
2022-08-20T00:23:49.866Z,17.50
2022-08-20T00:26:18.693Z,17.50
2022-08-20T00:28:46.354Z,17.50
2022-08-20T00:31:17.481Z,17.50
2022-08-20T00:33:45.377Z,17.50
2022-08-20T00:36:12.428Z,17.50
2022-08-20T00:38:42.612Z,17.50
2022-08-20T00:41:13.112Z,17.50
2022-08-20T00:43:52.854Z,17.40
2022-08-20T00:46:28.216Z,17.50
2022-08-20T00:48:59.646Z,17.50
2022-08-20T00:51:38.218Z,17.50
2022-08-20T00:54:25.729Z,17.50
2022-08-20T00:57:04.449Z,17.50
2022-08-20T00:59:34.526Z,17.40
2022-08-20T01:02:02.507Z,17.50
2022-08-20T01:04:33.661Z,17.50
2022-08-20T01:07:01.484Z,17.40
2022-08-20T01:09:50.158Z,17.40
2022-08-20T01:12:16.843Z,17.40
2022-08-20T01:14:45.331Z,17.40
2022-08-20T01:17:17.775Z,17.40
2022-08-20T01:19:55.609Z,17.40
2022-08-20T01:22:54.083Z,17.50
2022-08-20T01:25:29.923Z,17.50
2022-08-20T01:27:57.954Z,17.40
2022-08-20T01:30:28.824Z,17.40
2022-08-20T01:32:55.876Z,17.40
2022-08-20T01:35:24.004Z,17.40
2022-08-20T01:37:50.845Z,17.40
2022-08-20T01:40:27.660Z,17.40
2022-08-20T01:42:58.895Z,17.40
2022-08-20T01:45:28.269Z,17.40
2022-08-20T01:47:59.044Z,17.40
2022-08-20T01:50:30.780Z,17.40
2022-08-20T01:52:57.509Z,17.40
2022-08-20T01:55:26.767Z,17.40
2022-08-20T01:57:54.095Z,17.40
2022-08-20T02:00:22.352Z,17.40
2022-08-20T02:02:49.599Z,17.40
2022-08-20T02:05:18.580Z,17.40
2022-08-20T02:07:45.403Z,17.30
2022-08-20T02:10:14.771Z,17.30
2022-08-20T02:12:42.148Z,17.30
2022-08-20T02:15:10.554Z,17.30
2022-08-20T02:17:39.243Z,17.30
2022-08-20T02:20:14.172Z,17.30
2022-08-20T02:22:50.172Z,17.30
2022-08-20T02:25:19.160Z,17.30
2022-08-20T02:27:48.729Z,17.20
2022-08-20T02:30:28.055Z,17.20
2022-08-20T02:32:56.913Z,17.20
2022-08-20T02:35:24.958Z,17.20
2022-08-20T02:37:52.213Z,17.20
2022-08-20T02:40:27.321Z,17.20
2022-08-20T02:42:59.124Z,17.20
2022-08-20T02:45:26.648Z,17.20
2022-08-20T02:47:54.216Z,17.20
2022-08-20T02:50:24.008Z,17.20
2022-08-20T02:52:51.756Z,17.20
2022-08-20T02:55:27.744Z,17.20
2022-08-20T02:58:00.544Z,17.20
2022-08-20T03:00:32.140Z,17.20
2022-08-20T03:03:10.545Z,17.20
2022-08-20T03:05:39.391Z,17.20
2022-08-20T03:08:08.493Z,17.20
2022-08-20T03:10:36.989Z,17.20
2022-08-20T03:13:05.589Z,17.20
2022-08-20T03:15:33.906Z,17.20
2022-08-20T03:18:01.111Z,17.20
2022-08-20T03:20:28.583Z,17.20
2022-08-20T03:22:55.383Z,17.20
2022-08-20T03:25:22.714Z,17.20
2022-08-20T03:27:54.400Z,17.20
2022-08-20T03:30:23.210Z,17.20
2022-08-20T03:32:50.186Z,17.10
2022-08-20T03:35:21.285Z,17.20
2022-08-20T03:37:48.718Z,17.10
2022-08-20T03:40:25.852Z,17.10
2022-08-20T03:42:52.913Z,17.10
2022-08-20T03:45:21.449Z,17.10
2022-08-20T03:47:50.018Z,17.10
2022-08-20T03:50:23.595Z,17.10
2022-08-20T03:52:54.820Z,17.10
2022-08-20T03:55:22.613Z,17.10
2022-08-20T03:57:52.869Z,17.10
2022-08-20T04:00:23.485Z,17.10
2022-08-20T04:02:50.513Z,17.10
2022-08-20T04:05:17.362Z,17.10
2022-08-20T04:07:44.828Z,17.10
2022-08-20T04:10:12.568Z,17.10
2022-08-20T04:12:48.748Z,17.10
2022-08-20T04:15:20.765Z,17.10
2022-08-20T04:17:54.163Z,17.10
2022-08-20T04:20:23.903Z,17.10
2022-08-20T04:22:58.673Z,17.10
2022-08-20T04:25:29.845Z,17.10
2022-08-20T04:28:01.942Z,17.10
2022-08-20T04:30:29.723Z,17.10
2022-08-20T04:32:57.052Z,17.10
2022-08-20T04:35:27.117Z,17.10
2022-08-20T04:38:03.336Z,17.10
2022-08-20T04:40:49.086Z,17.10
2022-08-20T04:43:15.998Z,17.10
2022-08-20T04:45:44.889Z,17.10
2022-08-20T04:48:15.023Z,17.10
2022-08-20T04:50:43.385Z,17.10
2022-08-20T04:53:13.229Z,17.10
2022-08-20T04:55:42.919Z,17.10
2022-08-20T04:58:27.290Z,17.10
2022-08-20T05:00:56.708Z,17.10
2022-08-20T05:03:28.355Z,17.10
2022-08-20T05:05:56.585Z,17.10
2022-08-20T05:08:23.870Z,17.10
2022-08-20T05:10:56.117Z,17.10
2022-08-20T05:13:38.862Z,17.10
2022-08-20T05:16:06.043Z,17.10
2022-08-20T05:18:33.499Z,17.20
2022-08-20T05:21:05.879Z,17.20
2022-08-20T05:23:37.559Z,17.20
2022-08-20T05:26:09.108Z,17.20
2022-08-20T05:28:40.154Z,17.20
2022-08-20T05:31:21.071Z,17.20
2022-08-20T05:33:51.579Z,17.30
2022-08-20T05:36:18.497Z,17.30
2022-08-20T05:38:45.319Z,17.30
2022-08-20T05:41:27.730Z,17.30
2022-08-20T05:43:57.964Z,17.40
2022-08-20T05:46:24.955Z,17.40
2022-08-20T05:48:51.803Z,17.40
2022-08-20T05:51:18.743Z,17.50
2022-08-20T05:53:45.512Z,17.50
2022-08-20T05:56:12.334Z,17.50
2022-08-20T05:58:39.357Z,17.60
2022-08-20T06:01:06.514Z,17.70
2022-08-20T06:03:51.648Z,17.70
2022-08-20T06:06:45.250Z,17.80
2022-08-20T06:09:05.633Z,17.80
2022-08-20T06:11:36.500Z,17.90
2022-08-20T06:14:05.716Z,17.90
2022-08-20T06:16:32.561Z,17.90
2022-08-20T06:18:59.783Z,17.90
2022-08-20T06:21:29.837Z,17.90
2022-08-20T06:24:00.721Z,17.90
2022-08-20T06:26:30.580Z,17.90
2022-08-20T06:29:02.135Z,18.00
2022-08-20T06:31:29.140Z,18.00
2022-08-20T06:33:56.249Z,18.10
2022-08-20T06:36:23.258Z,18.10
2022-08-20T06:38:50.095Z,18.20
2022-08-20T06:41:17.341Z,18.30
2022-08-20T06:43:44.145Z,18.40
2022-08-20T06:46:10.982Z,18.40
2022-08-20T06:48:38.532Z,18.50
2022-08-20T06:51:06.835Z,18.50
2022-08-20T06:53:33.719Z,18.60
2022-08-20T06:56:00.584Z,18.60
2022-08-20T06:58:37.988Z,18.70
2022-08-20T07:01:11.199Z,18.60
2022-08-20T07:03:55.755Z,18.70
2022-08-20T07:06:25.019Z,18.70
2022-08-20T07:08:51.865Z,18.80
2022-08-20T07:11:18.695Z,18.80
2022-08-20T07:13:45.504Z,18.80
2022-08-20T07:16:12.407Z,18.90
2022-08-20T07:18:39.187Z,18.90
2022-08-20T07:21:06.203Z,18.90
2022-08-20T07:23:33.220Z,18.90
2022-08-20T07:26:00.128Z,18.90
2022-08-20T07:28:32.121Z,18.90
2022-08-20T07:31:17.902Z,18.90
2022-08-20T07:33:47.450Z,18.90
2022-08-20T07:36:17.757Z,18.90
2022-08-20T07:38:47.296Z,18.90
2022-08-20T07:41:14.773Z,19.00
2022-08-20T07:43:45.210Z,19.00
2022-08-20T07:46:13.002Z,19.10
2022-08-20T07:48:42.236Z,19.20
2022-08-20T07:51:11.093Z,19.20
2022-08-20T07:53:40.323Z,19.30
2022-08-20T07:56:10.318Z,19.30
2022-08-20T07:58:49.703Z,19.40
2022-08-20T08:01:23.020Z,19.40
2022-08-20T08:03:50.820Z,19.50
2022-08-20T08:06:29.375Z,19.50
2022-08-20T08:09:09.844Z,19.40
2022-08-20T08:11:40.185Z,19.50
2022-08-20T08:14:08.211Z,19.60
2022-08-20T08:16:36.739Z,19.70
2022-08-20T08:19:06.597Z,19.70
2022-08-20T08:21:33.445Z,19.80
2022-08-20T08:24:00.590Z,19.90
2022-08-20T08:26:29.047Z,20.00
2022-08-20T08:28:58.269Z,20.10
2022-08-20T08:31:25.915Z,20.10
2022-08-20T08:33:53.146Z,20.20
2022-08-20T08:36:20.249Z,20.20
2022-08-20T08:38:47.200Z,20.20
2022-08-20T08:41:34.099Z,20.20
2022-08-20T08:44:29.448Z,20.20
2022-08-20T08:47:22.130Z,20.00
2022-08-20T08:49:49.010Z,19.90
2022-08-20T08:52:27.514Z,19.80
2022-08-20T08:54:58.436Z,19.60
2022-08-20T08:57:26.196Z,19.50
2022-08-20T09:00:15.658Z,19.40
2022-08-20T09:03:00.967Z,19.30
2022-08-20T09:05:44.654Z,19.30
2022-08-20T09:08:17.173Z,19.30
2022-08-20T09:10:45.037Z,19.30
2022-08-20T09:13:14.068Z,19.30
2022-08-20T09:15:41.018Z,19.30
2022-08-20T09:18:07.845Z,19.40
2022-08-20T09:20:34.903Z,19.40
2022-08-20T09:23:01.829Z,19.40
2022-08-20T09:25:28.610Z,19.50
2022-08-20T09:27:55.457Z,19.50
2022-08-20T09:30:22.247Z,19.60
2022-08-20T09:32:50.268Z,19.60
2022-08-20T09:35:18.022Z,19.60
2022-08-20T09:37:44.893Z,19.70
2022-08-20T09:40:13.365Z,19.70
2022-08-20T09:42:41.701Z,19.80
2022-08-20T09:45:11.062Z,19.80
2022-08-20T09:47:39.800Z,19.80
2022-08-20T09:50:18.491Z,19.80
2022-08-20T09:52:48.069Z,19.90
2022-08-20T09:55:31.711Z,20.00
2022-08-20T09:57:59.639Z,20.10
2022-08-20T10:00:26.653Z,20.20
2022-08-20T10:02:53.585Z,20.20
2022-08-20T10:05:20.458Z,20.30
2022-08-20T10:07:47.256Z,20.40
2022-08-20T10:10:16.156Z,20.40
2022-08-20T10:12:43.327Z,20.40
2022-08-20T10:15:10.750Z,20.50
2022-08-20T10:17:40.423Z,20.50
2022-08-20T10:20:09.092Z,20.60
2022-08-20T10:22:36.378Z,20.60
2022-08-20T10:25:03.977Z,20.60
2022-08-20T10:27:30.908Z,20.70
2022-08-20T10:29:57.748Z,20.70
2022-08-20T10:32:24.549Z,20.70
2022-08-20T10:34:51.483Z,20.80
2022-08-20T10:37:21.574Z,20.80
2022-08-20T10:39:48.361Z,20.80
2022-08-20T10:42:15.698Z,20.80
2022-08-20T10:44:42.613Z,20.90
2022-08-20T10:47:19.761Z,20.90
2022-08-20T10:49:47.763Z,21.00
2022-08-20T10:52:14.666Z,21.00
2022-08-20T10:54:42.273Z,21.10
2022-08-20T10:57:21.676Z,21.00
2022-08-20T10:59:51.006Z,21.00
2022-08-20T11:02:19.411Z,21.00
2022-08-20T11:04:46.381Z,21.00
2022-08-20T11:07:50.741Z,21.00
2022-08-20T11:10:14.972Z,21.00
2022-08-20T11:12:43.594Z,21.10
2022-08-20T11:15:14.837Z,21.10
2022-08-20T11:17:43.372Z,21.10
2022-08-20T11:20:12.247Z,21.20
2022-08-20T11:22:39.226Z,21.20
2022-08-20T11:25:07.028Z,21.30
2022-08-20T11:27:40.411Z,21.30
2022-08-20T11:30:10.386Z,21.40
2022-08-20T11:32:37.319Z,21.50
2022-08-20T11:35:19.154Z,21.60
2022-08-20T11:37:53.681Z,21.60
2022-08-20T11:40:21.200Z,21.70
2022-08-20T11:43:11.133Z,21.80
2022-08-20T11:45:37.399Z,21.90
2022-08-20T11:48:05.211Z,22.10
2022-08-20T11:50:32.479Z,22.30
2022-08-20T11:53:01.224Z,22.50
2022-08-20T11:55:30.352Z,22.70
2022-08-20T11:58:00.457Z,22.80
2022-08-20T12:00:32.801Z,22.90
2022-08-20T12:03:05.266Z,22.70
2022-08-20T12:05:33.456Z,22.60
2022-08-20T12:08:04.419Z,22.30
2022-08-20T12:10:32.214Z,22.20
2022-08-20T12:12:59.281Z,22.20
2022-08-20T12:15:27.592Z,22.30
2022-08-20T12:17:55.452Z,22.40
2022-08-20T12:20:22.874Z,22.50
2022-08-20T12:22:49.964Z,22.60
2022-08-20T12:25:16.995Z,22.60
2022-08-20T12:27:43.827Z,22.60
2022-08-20T12:30:17.364Z,22.70
2022-08-20T12:32:44.854Z,22.80
2022-08-20T12:35:13.457Z,22.90
2022-08-20T12:37:40.982Z,23.00
2022-08-20T12:40:15.386Z,23.10
2022-08-20T12:42:42.450Z,23.20
2022-08-20T12:45:09.846Z,23.30
2022-08-20T12:47:40.432Z,23.50
2022-08-20T12:50:13.599Z,23.70
2022-08-20T12:52:41.702Z,23.90
2022-08-20T12:55:11.767Z,24.00
2022-08-20T12:57:46.755Z,24.10
2022-08-20T13:00:15.841Z,24.10
2022-08-20T13:02:43.188Z,24.20
2022-08-20T13:05:11.862Z,24.20
2022-08-20T13:07:39.924Z,24.20
2022-08-20T13:10:08.710Z,24.20
2022-08-20T13:12:35.801Z,24.10
2022-08-20T13:15:02.789Z,24.10
2022-08-20T13:17:39.060Z,24.00
2022-08-20T13:20:10.100Z,24.00
2022-08-20T13:22:36.911Z,24.00
2022-08-20T13:25:05.138Z,24.00
2022-08-20T13:27:31.969Z,23.90
2022-08-20T13:29:59.293Z,23.80
2022-08-20T13:32:26.915Z,23.80
2022-08-20T13:34:53.779Z,23.80
2022-08-20T13:37:25.797Z,23.70
2022-08-20T13:39:56.560Z,23.70
2022-08-20T13:42:23.509Z,23.70
2022-08-20T13:44:50.577Z,23.70
2022-08-20T13:47:19.395Z,23.80
2022-08-20T13:49:46.902Z,24.00
2022-08-20T13:52:16.327Z,24.10
2022-08-20T13:54:44.061Z,24.20
2022-08-20T13:57:16.977Z,24.30
2022-08-20T13:59:45.852Z,24.40
2022-08-20T14:02:13.259Z,24.50
2022-08-20T14:04:40.563Z,24.50
2022-08-20T14:07:14.429Z,24.40
2022-08-20T14:09:43.661Z,24.20
2022-08-20T14:12:11.431Z,23.60
2022-08-20T14:14:38.277Z,23.10
2022-08-20T14:17:29.846Z,22.60
2022-08-20T14:20:01.362Z,22.20
2022-08-20T14:22:29.520Z,21.80
2022-08-20T14:24:56.854Z,21.50
2022-08-20T14:27:29.035Z,21.40
2022-08-20T14:29:58.514Z,21.20
2022-08-20T14:32:26.183Z,21.20
2022-08-20T14:34:54.227Z,21.10
2022-08-20T14:37:22.149Z,21.10
2022-08-20T14:39:51.820Z,21.10
2022-08-20T14:42:20.258Z,21.10
2022-08-20T14:44:47.120Z,21.00
2022-08-20T14:47:37.959Z,20.90
2022-08-20T14:50:30.528Z,20.80
2022-08-20T14:52:58.728Z,20.70
2022-08-20T14:55:30.143Z,20.60
2022-08-20T14:57:57.386Z,20.50
2022-08-20T15:00:27.973Z,20.50
2022-08-20T15:02:55.229Z,20.40
2022-08-20T15:05:22.069Z,20.30
2022-08-20T15:07:53.736Z,20.20
2022-08-20T15:10:32.489Z,20.10
2022-08-20T15:13:00.352Z,20.00
2022-08-20T15:15:27.344Z,19.90
2022-08-20T15:17:57.639Z,19.80
2022-08-20T15:20:26.316Z,19.70
2022-08-20T15:22:53.708Z,19.70
2022-08-20T15:25:24.512Z,19.60
2022-08-20T15:27:54.958Z,19.50
2022-08-20T15:30:25.623Z,19.30
2022-08-20T15:32:55.012Z,19.00
2022-08-20T15:35:24.529Z,18.70
2022-08-20T15:37:51.805Z,18.30
2022-08-20T15:40:27.864Z,18.00
2022-08-20T15:42:55.901Z,17.70
2022-08-20T15:45:22.650Z,17.40
2022-08-20T15:48:10.137Z,17.10
2022-08-20T15:51:11.785Z,16.90
2022-08-20T15:53:53.955Z,16.80
2022-08-20T15:56:27.817Z,16.70
2022-08-20T15:59:19.052Z,16.60
2022-08-20T16:02:10.442Z,16.60
2022-08-20T16:05:08.086Z,16.60
2022-08-20T16:07:53.733Z,16.70
2022-08-20T16:10:32.410Z,16.70
2022-08-20T16:13:02.377Z,16.70
2022-08-20T16:15:32.494Z,16.70
2022-08-20T16:18:10.445Z,16.70
2022-08-20T16:20:43.359Z,16.80
2022-08-20T16:23:21.373Z,16.80
2022-08-20T16:25:48.111Z,16.80
2022-08-20T16:28:26.256Z,16.80
2022-08-20T16:31:01.499Z,16.80
2022-08-20T16:33:56.428Z,16.80
2022-08-20T16:36:47.205Z,16.80
2022-08-20T16:39:44.793Z,16.80
2022-08-20T16:42:20.593Z,16.80
2022-08-20T16:44:50.457Z,16.90
2022-08-20T16:47:25.990Z,16.80
2022-08-20T16:49:55.816Z,16.80
2022-08-20T16:52:22.825Z,16.90
2022-08-20T16:54:49.749Z,16.90
2022-08-20T16:57:18.486Z,16.90
2022-08-20T17:00:05.582Z,16.90
2022-08-20T17:02:32.386Z,16.90
2022-08-20T17:05:06.520Z,16.90
2022-08-20T17:07:49.421Z,16.90
2022-08-20T17:10:26.508Z,16.90
2022-08-20T17:13:04.721Z,17.00
2022-08-20T17:15:35.108Z,17.00
2022-08-20T17:18:20.184Z,17.00
2022-08-20T17:20:46.955Z,17.00
2022-08-20T17:23:18.117Z,17.00
2022-08-20T17:25:54.608Z,17.00
2022-08-20T17:28:23.315Z,17.00
2022-08-20T17:30:50.560Z,17.00
2022-08-20T17:33:31.461Z,17.00
2022-08-20T17:36:18.133Z,16.90
2022-08-20T17:38:51.637Z,17.00
2022-08-20T17:41:31.279Z,17.00
2022-08-20T17:43:58.017Z,17.00
2022-08-20T17:46:27.947Z,17.00
2022-08-20T17:48:57.284Z,16.90
2022-08-20T17:51:42.889Z,17.00
2022-08-20T17:54:15.851Z,17.00
2022-08-20T17:56:44.604Z,16.90
2022-08-20T18:00:01.573Z,16.90
2022-08-20T18:02:30.635Z,16.90
2022-08-20T18:04:57.573Z,16.90
2022-08-20T18:07:27.952Z,16.90
2022-08-20T18:09:57.968Z,16.90
2022-08-20T18:12:33.511Z,16.90
2022-08-20T18:15:24.732Z,17.00
2022-08-20T18:18:15.717Z,17.00
2022-08-20T18:20:56.060Z,17.00
2022-08-20T18:23:30.004Z,17.00
2022-08-20T18:26:05.922Z,16.90
2022-08-20T18:28:46.467Z,16.90
2022-08-20T18:31:34.468Z,16.90
2022-08-20T18:34:22.312Z,17.00
2022-08-20T18:37:02.509Z,17.00
2022-08-20T18:39:33.044Z,17.00
2022-08-20T18:42:04.168Z,16.90
2022-08-20T18:44:45.405Z,16.90
2022-08-20T18:47:41.885Z,16.90
2022-08-20T18:50:21.032Z,16.90
2022-08-20T18:53:11.429Z,16.90
2022-08-20T18:55:42.897Z,16.90
2022-08-20T18:58:13.183Z,16.90
2022-08-20T19:00:49.327Z,17.00
2022-08-20T19:03:37.735Z,16.90
2022-08-20T19:06:10.827Z,17.00
2022-08-20T19:08:59.744Z,17.00
2022-08-20T19:11:51.967Z,17.00
2022-08-20T19:14:18.736Z,17.00
2022-08-20T19:17:06.520Z,17.00
2022-08-20T19:19:33.491Z,17.00
2022-08-20T19:22:02.255Z,17.00
2022-08-20T19:24:33.605Z,17.00
2022-08-20T19:27:04.888Z,17.00
2022-08-20T19:29:39.186Z,17.00
2022-08-20T19:32:08.759Z,17.00
2022-08-20T19:34:36.388Z,17.00
2022-08-20T19:37:32.778Z,17.00
2022-08-20T19:40:01.501Z,16.90
2022-08-20T19:42:31.907Z,17.00
2022-08-20T19:45:09.061Z,16.90
2022-08-20T19:47:41.331Z,17.00
2022-08-20T19:50:48.739Z,16.90
2022-08-20T19:53:26.538Z,16.90
2022-08-20T19:56:16.103Z,16.90
2022-08-20T19:58:44.224Z,16.90
2022-08-20T20:01:21.388Z,16.90
2022-08-20T20:04:04.219Z,16.90
2022-08-20T20:06:37.814Z,16.90
2022-08-20T20:09:13.963Z,16.90
2022-08-20T20:11:44.916Z,16.80
2022-08-20T20:14:13.809Z,16.90
2022-08-20T20:16:42.443Z,16.90
2022-08-20T20:19:28.714Z,16.90
2022-08-20T20:22:19.089Z,16.90
2022-08-20T20:24:57.659Z,16.90
2022-08-20T20:27:27.220Z,16.90
2022-08-20T20:30:02.557Z,16.80
2022-08-20T20:32:30.558Z,16.90
2022-08-20T20:34:59.663Z,16.90
2022-08-20T20:37:49.589Z,16.90
2022-08-20T20:40:25.791Z,16.90
2022-08-20T20:43:06.163Z,16.90
2022-08-20T20:45:36.563Z,16.90
2022-08-20T20:48:33.845Z,16.90
2022-08-20T20:51:11.870Z,16.90
2022-08-20T20:53:53.235Z,16.80
2022-08-20T20:56:43.542Z,16.90
2022-08-20T20:59:10.939Z,16.80
2022-08-20T21:01:49.232Z,16.90
2022-08-20T21:04:22.220Z,16.80
2022-08-20T21:06:50.206Z,16.90
2022-08-20T21:09:17.178Z,16.80
2022-08-20T21:11:44.534Z,16.80
2022-08-20T21:14:11.754Z,16.80
2022-08-20T21:16:38.636Z,16.80
2022-08-20T21:19:07.063Z,16.80
2022-08-20T21:21:34.234Z,16.80
2022-08-20T21:24:00.987Z,16.80
2022-08-20T21:26:28.076Z,16.80
2022-08-20T21:28:55.149Z,16.80
2022-08-20T21:31:26.082Z,16.80
2022-08-20T21:33:52.828Z,16.90
2022-08-20T21:36:19.609Z,16.90
2022-08-20T21:38:46.393Z,16.90
2022-08-20T21:41:14.559Z,16.90
2022-08-20T21:43:42.526Z,16.90
2022-08-20T21:46:11.058Z,16.90
2022-08-20T21:48:40.141Z,16.80
2022-08-20T21:51:06.972Z,16.80
2022-08-20T21:53:34.083Z,16.80
2022-08-20T21:56:01.453Z,16.80
2022-08-20T21:58:28.414Z,16.80
2022-08-20T22:01:01.731Z,16.80
2022-08-20T22:03:38.696Z,16.70
2022-08-20T22:06:07.470Z,16.80
2022-08-20T22:08:34.420Z,16.70
2022-08-20T22:11:02.144Z,16.70
2022-08-20T22:13:32.753Z,16.80
2022-08-20T22:16:01.831Z,16.70
2022-08-20T22:18:28.701Z,16.70
2022-08-20T22:20:56.537Z,16.80
2022-08-20T22:23:23.603Z,16.70
2022-08-20T22:25:50.424Z,16.70
2022-08-20T22:28:18.382Z,16.70
2022-08-20T22:30:45.304Z,16.70
2022-08-20T22:33:16.513Z,16.70
2022-08-20T22:35:47.617Z,16.70
2022-08-20T22:38:14.966Z,16.70
2022-08-20T22:40:42.675Z,16.70
2022-08-20T22:43:09.906Z,16.70
2022-08-20T22:45:37.200Z,16.70
2022-08-20T22:48:06.921Z,16.70
2022-08-20T22:50:33.881Z,16.70
2022-08-20T22:53:02.046Z,16.80
2022-08-20T22:55:28.823Z,16.80
2022-08-20T22:57:55.596Z,16.80
2022-08-20T23:00:24.542Z,16.80
2022-08-20T23:02:55.036Z,16.80
2022-08-20T23:05:25.591Z,16.80
2022-08-20T23:07:54.479Z,16.80
2022-08-20T23:10:22.495Z,16.80
2022-08-20T23:12:49.541Z,16.80
2022-08-20T23:15:16.336Z,16.80
2022-08-20T23:17:43.357Z,16.80
2022-08-20T23:20:13.365Z,16.70
2022-08-20T23:22:40.257Z,16.70
2022-08-20T23:25:08.848Z,16.70
2022-08-20T23:27:47.001Z,16.70
2022-08-20T23:30:17.119Z,16.60
2022-08-20T23:32:43.927Z,16.60
2022-08-20T23:35:12.152Z,16.50
2022-08-20T23:37:45.802Z,16.50
2022-08-20T23:40:13.968Z,16.50
2022-08-20T23:42:41.108Z,16.50
2022-08-20T23:45:08.677Z,16.50
2022-08-20T23:47:36.344Z,16.50
2022-08-20T23:50:08.381Z,16.40
2022-08-20T23:52:35.244Z,16.40
2022-08-20T23:55:02.081Z,16.40
2022-08-20T23:57:28.935Z,16.30
2022-08-20T23:59:55.925Z,16.30
